createdAt,value
2017-05-29T00:00:05.887Z,98885
2017-05-29T00:02:34.736Z,98884
2017-05-29T00:05:03.592Z,98874
2017-05-29T00:07:32.435Z,98876
2017-05-29T00:10:01.283Z,98873
2017-05-29T00:12:30.136Z,98869
2017-05-29T00:14:58.984Z,98871
2017-05-29T00:17:27.072Z,98876
2017-05-29T00:19:55.925Z,98872
2017-05-29T00:22:24.774Z,98873
2017-05-29T00:24:53.631Z,98877
2017-05-29T00:27:21.779Z,98876
2017-05-29T00:29:50.695Z,98880
2017-05-29T00:32:19.534Z,98871
2017-05-29T00:34:48.399Z,98874
2017-05-29T00:37:17.239Z,98873
2017-05-29T00:39:46.094Z,98874
2017-05-29T00:42:14.935Z,98871
2017-05-29T00:44:43.771Z,98867
2017-05-29T00:47:12.628Z,98875
2017-05-29T00:52:15.948Z,98858
2017-05-29T00:54:44.787Z,98852
2017-05-29T00:57:13.659Z,98854
2017-05-29T00:59:42.512Z,98847
2017-05-29T01:02:11.363Z,98842
2017-05-29T01:04:40.220Z,98838
2017-05-29T01:07:09.076Z,98831
2017-05-29T01:09:37.932Z,98836
2017-05-29T01:12:06.783Z,98836
2017-05-29T01:14:35.635Z,98838
2017-05-29T01:17:04.475Z,98838
2017-05-29T01:19:33.319Z,98835
2017-05-29T01:22:02.208Z,98843
2017-05-29T01:24:31.046Z,98835
2017-05-29T01:26:59.907Z,98851
2017-05-29T01:29:28.747Z,98839
2017-05-29T01:31:57.616Z,98845
2017-05-29T01:34:26.459Z,98840
2017-05-29T01:36:55.306Z,98842
2017-05-29T01:39:24.159Z,98841
2017-05-29T01:41:52.236Z,98838
2017-05-29T01:44:21.101Z,98845
2017-05-29T01:46:49.932Z,98847
2017-05-29T01:49:18.786Z,98854
2017-05-29T01:51:47.629Z,98847
2017-05-29T01:54:16.477Z,98855
2017-05-29T01:56:44.564Z,98853
2017-05-29T01:59:13.414Z,98853
2017-05-29T02:01:42.264Z,98847
2017-05-29T02:04:11.107Z,98844
2017-05-29T02:06:39.963Z,98833
2017-05-29T02:09:08.812Z,98838
2017-05-29T02:11:37.656Z,98845
2017-05-29T02:14:06.543Z,98836
2017-05-29T02:16:35.384Z,98843
2017-05-29T02:19:03.481Z,98848
2017-05-29T02:21:32.435Z,98843
2017-05-29T02:24:01.288Z,98835
2017-05-29T02:26:30.139Z,98834
2017-05-29T02:28:58.219Z,98826
2017-05-29T02:31:27.073Z,98826
2017-05-29T02:33:55.925Z,98826
2017-05-29T02:36:24.775Z,98830
2017-05-29T02:38:53.619Z,98824
2017-05-29T02:41:22.478Z,98822
2017-05-29T02:43:51.329Z,98826
2017-05-29T02:46:20.170Z,98826
2017-05-29T02:48:49.020Z,98826
2017-05-29T02:51:17.992Z,98826
2017-05-29T02:53:46.844Z,98824
2017-05-29T02:56:15.691Z,98826
2017-05-29T02:58:44.547Z,98832
2017-05-29T03:01:13.404Z,98829
2017-05-29T03:03:41.482Z,98828
2017-05-29T03:06:10.878Z,98826
2017-05-29T03:08:39.727Z,98828
2017-05-29T03:11:08.587Z,98826
2017-05-29T03:13:37.435Z,98824
2017-05-29T03:16:06.425Z,98820
2017-05-29T03:18:35.304Z,98818
2017-05-29T03:21:04.147Z,98827
2017-05-29T03:23:32.995Z,98822
2017-05-29T03:26:01.876Z,98823
2017-05-29T03:28:29.970Z,98833
2017-05-29T03:30:58.823Z,98828
2017-05-29T03:33:27.700Z,98828
2017-05-29T03:35:56.560Z,98838
2017-05-29T03:38:25.410Z,98836
2017-05-29T03:40:54.256Z,98839
2017-05-29T03:43:23.119Z,98846
2017-05-29T03:45:51.977Z,98851
2017-05-29T03:48:20.855Z,98856
2017-05-29T03:50:49.711Z,98849
2017-05-29T03:53:18.567Z,98853
2017-05-29T03:55:47.412Z,98851
2017-05-29T03:58:16.309Z,98844
2017-05-29T04:00:45.155Z,98855
2017-05-29T04:03:14.014Z,98857
2017-05-29T04:05:42.856Z,98859
2017-05-29T04:08:11.736Z,98851
2017-05-29T04:10:40.583Z,98862
2017-05-29T04:13:09.440Z,98855
2017-05-29T04:15:38.306Z,98860
2017-05-29T04:18:06.384Z,98869
2017-05-29T04:20:35.252Z,98874
2017-05-29T04:23:04.104Z,98872
2017-05-29T04:25:32.959Z,98870
2017-05-29T04:28:01.807Z,98869
2017-05-29T04:30:30.657Z,98865
2017-05-29T04:32:59.508Z,98865
2017-05-29T04:35:28.371Z,98868
2017-05-29T04:37:57.236Z,98870
2017-05-29T04:40:26.087Z,98872
2017-05-29T04:42:54.196Z,98866
2017-05-29T04:45:23.036Z,98865
2017-05-29T04:47:51.123Z,98864
2017-05-29T04:50:19.975Z,98869
2017-05-29T04:52:48.815Z,98871
2017-05-29T04:55:17.668Z,98868
2017-05-29T04:57:45.752Z,98869
2017-05-29T05:00:14.690Z,98875
2017-05-29T05:02:43.571Z,98880
2017-05-29T05:05:12.430Z,98877
2017-05-29T05:07:41.296Z,98886
2017-05-29T05:10:10.227Z,98878
2017-05-29T05:12:38.321Z,98872
2017-05-29T05:15:07.175Z,98875
2017-05-29T05:17:35.281Z,98877
2017-05-29T05:20:04.135Z,98870
2017-05-29T05:22:32.992Z,98877
2017-05-29T05:25:01.859Z,98878
2017-05-29T05:27:30.715Z,98873
2017-05-29T05:29:58.795Z,98886
2017-05-29T05:32:27.651Z,98876
2017-05-29T05:34:56.539Z,98878
2017-05-29T05:37:25.375Z,98879
2017-05-29T05:39:54.235Z,98869
2017-05-29T05:42:23.101Z,98874
2017-05-29T05:44:52.060Z,98873
2017-05-29T05:47:20.920Z,98876
2017-05-29T05:49:49.000Z,98877
2017-05-29T05:52:17.887Z,98880
2017-05-29T05:54:46.727Z,98872
2017-05-29T05:57:15.576Z,98868
2017-05-29T05:59:43.681Z,98867
2017-05-29T06:02:12.528Z,98870
2017-05-29T06:04:41.389Z,98869
2017-05-29T06:07:10.236Z,98867
2017-05-29T06:09:39.104Z,98868
2017-05-29T06:12:07.943Z,98856
2017-05-29T06:14:36.787Z,98860
2017-05-29T06:17:05.658Z,98853
2017-05-29T06:19:34.511Z,98873
2017-05-29T06:22:03.367Z,98865
2017-05-29T06:24:32.199Z,98859
2017-05-29T06:27:01.056Z,98870
2017-05-29T06:29:29.918Z,98849
2017-05-29T06:31:58.764Z,98862
2017-05-29T06:34:27.619Z,98860
2017-05-29T06:36:56.466Z,98856
2017-05-29T06:39:25.323Z,98853
2017-05-29T06:41:54.180Z,98854
2017-05-29T06:44:23.048Z,98853
2017-05-29T06:46:51.883Z,98852
2017-05-29T06:49:20.883Z,98855
2017-05-29T06:51:49.744Z,98853
2017-05-29T06:54:18.590Z,98848
2017-05-29T06:56:47.435Z,98841
2017-05-29T06:59:16.285Z,98844
2017-05-29T07:01:45.177Z,98849
2017-05-29T07:04:14.031Z,98848
2017-05-29T07:06:42.891Z,98847
2017-05-29T07:09:10.992Z,98848
2017-05-29T07:11:39.072Z,98842
2017-05-29T07:14:07.946Z,98838
2017-05-29T07:16:36.798Z,98844
2017-05-29T07:19:05.627Z,98834
2017-05-29T07:21:34.480Z,98832
2017-05-29T07:24:03.405Z,98838
2017-05-29T07:26:32.281Z,98824
2017-05-29T07:29:01.144Z,98822
2017-05-29T07:31:29.996Z,98828
2017-05-29T07:33:58.847Z,98824
2017-05-29T07:36:27.706Z,98828
2017-05-29T07:38:56.591Z,98826
2017-05-29T07:41:25.475Z,98817
2017-05-29T07:43:54.336Z,98813
2017-05-29T07:46:23.192Z,98813
2017-05-29T07:48:51.279Z,98803
2017-05-29T07:51:20.147Z,98806
2017-05-29T07:53:48.991Z,98805
2017-05-29T07:56:17.854Z,98801
2017-05-29T07:58:45.926Z,98802
2017-05-29T08:01:15.068Z,98804
2017-05-29T08:03:43.920Z,98798
2017-05-29T08:06:12.776Z,98798
2017-05-29T08:08:41.624Z,98807
2017-05-29T08:11:10.479Z,98802
2017-05-29T08:13:39.351Z,98798
2017-05-29T08:16:09.211Z,98795
2017-05-29T08:18:38.055Z,98786
2017-05-29T08:21:06.911Z,98793
2017-05-29T08:23:35.800Z,98784
2017-05-29T08:26:04.647Z,98784
2017-05-29T08:28:33.515Z,98787
2017-05-29T08:31:02.364Z,98783
2017-05-29T08:33:31.211Z,98792
2017-05-29T08:36:00.112Z,98780
2017-05-29T08:38:28.183Z,98786
2017-05-29T08:40:57.051Z,98785
2017-05-29T08:43:25.946Z,98788
2017-05-29T08:45:54.916Z,98781
2017-05-29T08:48:23.763Z,98783
2017-05-29T08:50:51.835Z,98778
2017-05-29T08:53:20.690Z,98775
2017-05-29T08:55:49.551Z,98767
2017-05-29T08:58:18.396Z,98770
2017-05-29T09:00:47.240Z,98768
2017-05-29T09:03:16.154Z,98761
2017-05-29T09:05:45.005Z,98760
2017-05-29T09:08:13.864Z,98752
2017-05-29T09:10:41.943Z,98760
2017-05-29T09:13:10.793Z,98764
2017-05-29T09:15:39.637Z,98754
2017-05-29T09:18:08.547Z,98756
2017-05-29T09:20:37.416Z,98747
2017-05-29T09:23:06.270Z,98740
2017-05-29T09:25:35.153Z,98745
2017-05-29T09:28:04.018Z,98736
2017-05-29T09:30:32.857Z,98738
2017-05-29T09:33:00.943Z,98741
2017-05-29T09:35:29.785Z,98740
2017-05-29T09:37:58.631Z,98729
2017-05-29T09:40:27.550Z,98730
2017-05-29T09:42:56.415Z,98727
2017-05-29T09:45:25.259Z,98729
2017-05-29T09:47:54.128Z,98715
2017-05-29T09:50:22.963Z,98718
2017-05-29T09:52:51.799Z,98719
2017-05-29T09:55:20.688Z,98724
2017-05-29T09:57:49.527Z,98720
2017-05-29T10:00:18.379Z,98706
2017-05-29T10:02:47.231Z,98701
2017-05-29T10:05:16.084Z,98704
2017-05-29T10:07:44.919Z,98707
2017-05-29T10:10:13.791Z,98710
2017-05-29T10:12:42.631Z,98701
2017-05-29T10:15:11.467Z,98703
2017-05-29T10:17:40.316Z,98708
2017-05-29T10:20:09.163Z,98706
2017-05-29T10:22:38.004Z,98705
2017-05-29T10:25:06.844Z,98711
2017-05-29T10:27:35.695Z,98710
2017-05-29T10:30:04.535Z,98706
2017-05-29T10:32:33.379Z,98696
2017-05-29T10:35:02.228Z,98693
2017-05-29T10:37:31.084Z,98694
2017-05-29T10:39:59.168Z,98691
2017-05-29T10:42:28.038Z,98690
2017-05-29T10:44:56.911Z,98691
2017-05-29T10:47:25.762Z,98690
2017-05-29T10:49:54.943Z,98680
2017-05-29T10:52:23.839Z,98688
2017-05-29T10:54:52.682Z,98683
2017-05-29T10:57:21.543Z,98680
2017-05-29T10:59:50.380Z,98679
2017-05-29T11:02:19.245Z,98684
2017-05-29T11:04:48.232Z,98685
2017-05-29T11:07:17.078Z,98677
2017-05-29T11:09:45.931Z,98677
2017-05-29T11:12:14.798Z,98670
2017-05-29T11:14:43.666Z,98671
2017-05-29T11:17:12.509Z,98663
2017-05-29T11:19:41.371Z,98675
2017-05-29T11:22:10.233Z,98670
2017-05-29T11:24:39.074Z,98676
2017-05-29T11:27:07.919Z,98663
2017-05-29T11:29:36.755Z,98665
2017-05-29T11:32:05.603Z,98675
2017-05-29T11:34:34.460Z,98674
2017-05-29T11:37:03.307Z,98670
2017-05-29T11:39:32.154Z,98668
2017-05-29T11:42:00.299Z,98666
2017-05-29T11:44:29.164Z,98664
2017-05-29T11:46:57.999Z,98662
2017-05-29T11:49:26.840Z,98656
2017-05-29T11:51:55.766Z,98664
2017-05-29T11:54:25.284Z,98654
2017-05-29T11:56:54.134Z,98643
2017-05-29T11:59:22.980Z,98642
2017-05-29T12:01:51.858Z,98640
2017-05-29T12:04:30.631Z,98641
2017-05-29T12:06:59.487Z,98642
2017-05-29T12:09:28.335Z,98629
2017-05-29T12:11:57.227Z,98634
2017-05-29T12:14:26.072Z,98635
2017-05-29T12:16:54.911Z,98631
2017-05-29T12:19:23.751Z,98631
2017-05-29T12:21:52.592Z,98629
2017-05-29T12:24:21.463Z,98625
2017-05-29T12:26:50.307Z,98621
2017-05-29T12:29:19.142Z,98623
2017-05-29T12:31:48.695Z,98617
2017-05-29T12:34:17.532Z,98608
2017-05-29T12:36:46.475Z,98610
2017-05-29T12:39:15.307Z,98599
2017-05-29T12:41:44.162Z,98600
2017-05-29T12:44:12.992Z,98598
2017-05-29T12:46:41.830Z,98598
2017-05-29T12:49:09.921Z,98599
2017-05-29T12:51:38.758Z,98589
2017-05-29T12:54:07.607Z,98593
2017-05-29T12:56:36.439Z,98591
2017-05-29T12:59:05.296Z,98595
2017-05-29T13:01:34.138Z,98593
2017-05-29T13:04:02.976Z,98595
2017-05-29T13:06:31.885Z,98592
2017-05-29T13:09:00.831Z,98583
2017-05-29T13:11:29.685Z,98582
2017-05-29T13:13:58.531Z,98575
2017-05-29T13:16:27.383Z,98577
2017-05-29T13:18:56.224Z,98568
2017-05-29T13:21:25.059Z,98571
2017-05-29T13:23:54.035Z,98573
2017-05-29T13:26:22.867Z,98569
2017-05-29T13:28:50.956Z,98565
2017-05-29T13:31:19.809Z,98570
2017-05-29T13:33:47.944Z,98562
2017-05-29T13:36:16.784Z,98555
2017-05-29T13:38:44.868Z,98557
2017-05-29T13:41:13.711Z,98558
2017-05-29T13:43:42.595Z,98557
2017-05-29T13:46:11.427Z,98557
2017-05-29T13:48:40.264Z,98549
2017-05-29T13:51:09.111Z,98548
2017-05-29T13:53:37.190Z,98552
2017-05-29T13:56:06.026Z,98544
2017-05-29T13:58:34.876Z,98545
2017-05-29T14:01:03.906Z,98545
2017-05-29T14:03:32.763Z,98546
2017-05-29T14:06:01.599Z,98543
2017-05-29T14:08:30.467Z,98548
2017-05-29T14:10:59.311Z,98544
2017-05-29T14:13:28.147Z,98534
2017-05-29T14:15:57.081Z,98521
2017-05-29T14:18:25.927Z,98528
2017-05-29T14:20:54.775Z,98521
2017-05-29T14:23:23.607Z,98523
2017-05-29T14:25:52.476Z,98518
2017-05-29T14:28:21.307Z,98512
2017-05-29T14:30:50.148Z,98522
2017-05-29T14:33:18.997Z,98513
2017-05-29T14:35:47.875Z,98522
2017-05-29T14:38:16.723Z,98515
2017-05-29T14:40:44.799Z,98509
2017-05-29T14:43:14.817Z,98509
2017-05-29T14:45:43.656Z,98514
2017-05-29T14:48:12.507Z,98507
2017-05-29T14:50:40.587Z,98497
2017-05-29T14:53:09.476Z,98508
2017-05-29T14:55:38.327Z,98504
2017-05-29T14:58:07.172Z,98499
2017-05-29T15:00:36.032Z,98495
2017-05-29T15:03:04.867Z,98504
2017-05-29T15:05:33.712Z,98491
2017-05-29T15:08:02.555Z,98497
2017-05-29T15:10:31.395Z,98500
2017-05-29T15:12:59.699Z,98489
2017-05-29T15:15:28.563Z,98485
2017-05-29T15:17:56.652Z,98484
2017-05-29T15:20:25.487Z,98488
2017-05-29T15:22:54.323Z,98481
2017-05-29T15:25:23.167Z,98483
2017-05-29T15:27:52.019Z,98479
2017-05-29T15:30:20.903Z,98491
2017-05-29T15:32:49.733Z,98483
2017-05-29T15:35:18.683Z,98484
2017-05-29T15:37:47.516Z,98478
2017-05-29T15:40:16.463Z,98475
2017-05-29T15:42:45.374Z,98474
2017-05-29T15:45:14.239Z,98463
2017-05-29T15:47:42.323Z,98478
2017-05-29T15:50:11.160Z,98466
2017-05-29T15:52:40.033Z,98459
2017-05-29T15:55:08.860Z,98462
2017-05-29T15:57:37.709Z,98452
2017-05-29T16:00:06.559Z,98450
2017-05-29T16:02:35.395Z,98448
2017-05-29T16:05:04.239Z,98453
2017-05-29T16:07:33.070Z,98445
2017-05-29T16:10:01.946Z,98444
2017-05-29T16:12:30.011Z,98442
2017-05-29T16:14:58.909Z,98445
2017-05-29T16:17:27.087Z,98438
2017-05-29T16:19:55.952Z,98443
2017-05-29T16:22:24.799Z,98444
2017-05-29T16:24:53.635Z,98447
2017-05-29T16:27:21.755Z,98444
2017-05-29T16:29:50.595Z,98446
2017-05-29T16:32:18.667Z,98439
2017-05-29T16:34:47.528Z,98443
2017-05-29T16:37:16.376Z,98439
2017-05-29T16:39:45.221Z,98444
2017-05-29T16:42:14.057Z,98437
2017-05-29T16:44:42.932Z,98445
2017-05-29T16:47:11.007Z,98431
2017-05-29T16:49:39.849Z,98436
2017-05-29T16:52:08.696Z,98435
2017-05-29T16:54:37.539Z,98431
2017-05-29T16:57:06.382Z,98434
2017-05-29T16:59:35.219Z,98435
2017-05-29T17:02:04.066Z,98432
2017-05-29T17:04:32.905Z,98433
2017-05-29T17:07:02.139Z,98427
2017-05-29T17:09:30.991Z,98428
2017-05-29T17:11:59.826Z,98429
2017-05-29T17:14:28.667Z,98428
2017-05-29T17:16:57.499Z,98437
2017-05-29T17:19:26.374Z,98437
2017-05-29T17:21:55.220Z,98427
2017-05-29T17:24:24.084Z,98430
2017-05-29T17:26:52.927Z,98426
2017-05-29T17:29:21.764Z,98430
2017-05-29T17:31:50.615Z,98429
2017-05-29T17:34:19.456Z,98428
2017-05-29T17:36:48.323Z,98433
2017-05-29T17:39:16.397Z,98434
2017-05-29T17:41:45.451Z,98429
2017-05-29T17:44:15.234Z,98433
2017-05-29T17:46:44.075Z,98433
2017-05-29T17:49:12.168Z,98427
2017-05-29T17:51:41.002Z,98432
2017-05-29T17:54:09.872Z,98424
2017-05-29T17:56:38.714Z,98422
2017-05-29T17:59:07.560Z,98418
2017-05-29T18:01:36.404Z,98415
2017-05-29T18:04:05.239Z,98428
2017-05-29T18:06:34.087Z,98424
2017-05-29T18:09:02.922Z,98427
2017-05-29T18:11:31.797Z,98439
2017-05-29T18:14:00.651Z,98447
2017-05-29T18:16:30.021Z,98442
2017-05-29T18:18:58.867Z,98444
2017-05-29T18:21:27.714Z,98438
2017-05-29T18:23:56.555Z,98448
2017-05-29T18:26:25.420Z,98450
2017-05-29T18:28:54.327Z,98453
2017-05-29T18:31:22.443Z,98449
2017-05-29T18:33:51.280Z,98456
2017-05-29T18:36:20.158Z,98458
2017-05-29T18:38:48.999Z,98452
2017-05-29T18:41:17.851Z,98457
2017-05-29T18:43:45.931Z,98453
2017-05-29T18:46:14.803Z,98457
2017-05-29T18:48:42.907Z,98454
2017-05-29T18:51:11.763Z,98462
2017-05-29T18:53:40.611Z,98454
2017-05-29T18:56:09.466Z,98452
2017-05-29T18:58:37.543Z,98463
2017-05-29T19:01:06.395Z,98465
2017-05-29T19:03:36.667Z,98456
2017-05-29T19:06:05.537Z,98463
2017-05-29T19:08:33.731Z,98459
2017-05-29T19:11:02.637Z,98459
2017-05-29T19:13:31.662Z,98461
2017-05-29T19:16:01.408Z,98460
2017-05-29T19:18:32.165Z,98459
2017-05-29T19:21:02.212Z,98461
2017-05-29T19:23:33.916Z,98473
2017-05-29T19:26:03.912Z,98470
2017-05-29T19:28:34.047Z,98475
2017-05-29T19:31:03.257Z,98466
2017-05-29T19:33:49.995Z,98467
2017-05-29T19:36:21.612Z,98470
2017-05-29T19:38:51.860Z,98469
2017-05-29T19:41:24.244Z,98468
2017-05-29T19:43:56.181Z,98472
2017-05-29T19:46:25.427Z,98480
2017-05-29T19:48:59.264Z,98472
2017-05-29T19:51:29.039Z,98479
2017-05-29T19:54:10.879Z,98480
2017-05-29T19:56:39.843Z,98487
2017-05-29T19:59:10.407Z,98494
2017-05-29T20:01:42.279Z,98492
2017-05-29T20:04:22.160Z,98492
2017-05-29T20:07:04.313Z,98495
2017-05-29T20:09:35.642Z,98496
2017-05-29T20:12:04.771Z,98498
2017-05-29T20:14:35.591Z,98494
2017-05-29T20:17:08.417Z,98501
2017-05-29T20:19:39.148Z,98498
2017-05-29T20:22:11.837Z,98497
2017-05-29T20:24:52.411Z,98499
2017-05-29T20:27:23.689Z,98511
2017-05-29T20:29:56.922Z,98508
2017-05-29T20:32:28.448Z,98506
2017-05-29T20:35:10.727Z,98507
2017-05-29T20:38:03.380Z,98507
2017-05-29T20:40:32.276Z,98509
2017-05-29T20:43:01.211Z,98502
2017-05-29T20:45:30.072Z,98505
2017-05-29T20:47:58.915Z,98507
2017-05-29T20:50:27.774Z,98505
2017-05-29T20:52:56.621Z,98505
2017-05-29T20:55:25.540Z,98501
2017-05-29T20:57:53.628Z,98506
2017-05-29T21:00:22.468Z,98503
2017-05-29T21:02:52.002Z,98499
2017-05-29T21:05:20.843Z,98500
2017-05-29T21:07:49.715Z,98505
2017-05-29T21:10:17.787Z,98501
2017-05-29T21:12:46.668Z,98500
2017-05-29T21:15:15.563Z,98498
2017-05-29T21:17:44.454Z,98500
2017-05-29T21:20:13.310Z,98509
2017-05-29T21:22:42.150Z,98488
2017-05-29T21:25:10.995Z,98489
2017-05-29T21:27:39.854Z,98494
2017-05-29T21:30:08.731Z,98494
2017-05-29T21:32:37.570Z,98490
2017-05-29T21:35:06.410Z,98508
2017-05-29T21:37:35.271Z,98492
2017-05-29T21:40:04.151Z,98492
2017-05-29T21:42:32.241Z,98493
2017-05-29T21:45:01.078Z,98491
2017-05-29T21:47:29.932Z,98494
2017-05-29T21:49:58.837Z,98492
2017-05-29T21:52:27.681Z,98488
2017-05-29T21:54:56.627Z,98488
2017-05-29T21:57:25.483Z,98489
2017-05-29T21:59:54.336Z,98489
2017-05-29T22:02:23.183Z,98492
2017-05-29T22:04:52.050Z,98490
2017-05-29T22:07:21.019Z,98498
2017-05-29T22:09:49.863Z,98490
2017-05-29T22:12:18.735Z,98483
2017-05-29T22:14:47.595Z,98497
2017-05-29T22:17:16.451Z,98496
2017-05-29T22:19:45.296Z,98505
2017-05-29T22:22:14.169Z,98502
2017-05-29T22:24:43.061Z,98494
2017-05-29T22:27:11.895Z,98504
2017-05-29T22:29:40.735Z,98504
2017-05-29T22:32:09.587Z,98503
2017-05-29T22:34:38.440Z,98502
2017-05-29T22:37:07.283Z,98510
2017-05-29T22:39:36.134Z,98506
2017-05-29T22:42:04.988Z,98497
2017-05-29T22:44:33.826Z,98497
2017-05-29T22:47:02.675Z,98501
2017-05-29T22:49:31.523Z,98503
2017-05-29T22:52:00.370Z,98506
2017-05-29T22:54:29.214Z,98503
2017-05-29T22:56:58.075Z,98505
2017-05-29T22:59:26.914Z,98499
2017-05-29T23:01:55.761Z,98500
2017-05-29T23:04:24.739Z,98505
2017-05-29T23:06:53.579Z,98503
2017-05-29T23:09:22.433Z,98505
2017-05-29T23:11:51.275Z,98500
2017-05-29T23:14:20.127Z,98505
2017-05-29T23:16:49.011Z,98506
2017-05-29T23:19:17.848Z,98494
2017-05-29T23:21:46.698Z,98494
2017-05-29T23:24:15.540Z,98504
2017-05-29T23:26:44.397Z,98502
2017-05-29T23:29:13.239Z,98504
2017-05-29T23:31:42.112Z,98488
2017-05-29T23:34:10.960Z,98499
2017-05-29T23:36:39.799Z,98494
2017-05-29T23:39:08.644Z,98493
2017-05-29T23:41:37.483Z,98496
2017-05-29T23:44:06.335Z,98493
2017-05-29T23:46:35.180Z,98495
2017-05-29T23:49:04.031Z,98498
2017-05-29T23:51:32.891Z,98493
2017-05-29T23:54:01.738Z,98506
2017-05-29T23:56:30.588Z,98507
2017-05-29T23:58:59.435Z,98505
